createdAt,value
2023-03-26T00:01:40.920Z,97624.14
2023-03-26T00:04:08.508Z,97627.92
2023-03-26T00:06:40.016Z,97625.66
2023-03-26T00:09:09.692Z,97629.18
2023-03-26T00:11:36.823Z,97631.85
2023-03-26T00:14:05.877Z,97630.71
2023-03-26T00:16:40.615Z,97627.64
2023-03-26T00:19:08.390Z,97630.23
2023-03-26T00:21:35.517Z,97621.09
2023-03-26T00:24:06.652Z,97620.52
2023-03-26T00:26:38.802Z,97621.27
2023-03-26T00:29:07.221Z,97619.98
2023-03-26T00:31:34.684Z,97618.75
2023-03-26T00:34:04.054Z,97616.83
2023-03-26T00:36:31.515Z,97610.06
2023-03-26T00:38:58.672Z,97610.45
2023-03-26T00:41:27.213Z,97613.45
2023-03-26T00:43:57.125Z,97615.48
2023-03-26T00:46:37.550Z,97608.33
2023-03-26T00:49:04.633Z,97602.41
2023-03-26T00:51:32.241Z,97596.20
2023-03-26T00:53:59.358Z,97599.63
2023-03-26T00:56:27.062Z,97601.36
2023-03-26T00:58:54.172Z,97604.55
2023-03-26T01:01:29.274Z,97600.22
2023-03-26T01:04:08.957Z,97602.73
2023-03-26T01:06:39.755Z,97596.34
2023-03-26T01:09:20.266Z,97598.88
2023-03-26T01:11:49.069Z,97595.75
2023-03-26T01:14:25.467Z,97594.52
2023-03-26T01:17:04.434Z,97592.17
2023-03-26T01:19:52.538Z,97594.22
2023-03-26T01:22:24.837Z,97588.86
2023-03-26T01:24:57.015Z,97593.19
2023-03-26T01:27:36.191Z,97594.15
2023-03-26T01:30:27.809Z,97592.07
2023-03-26T01:33:20.836Z,97595.80
2023-03-26T01:36:29.388Z,97592.94
2023-03-26T01:39:25.611Z,97584.48
2023-03-26T01:41:58.725Z,97580.13
2023-03-26T01:44:50.741Z,97578.31
2023-03-26T01:47:18.802Z,97577.39
2023-03-26T01:49:46.017Z,97574.84
2023-03-26T01:52:20.086Z,97576.84
2023-03-26T01:54:47.733Z,97577.29
2023-03-26T01:57:40.012Z,97577.48
2023-03-26T02:00:19.787Z,97584.09
2023-03-26T02:02:59.459Z,97578.42
2023-03-26T02:05:36.090Z,97578.58
2023-03-26T02:08:17.069Z,97576.17
2023-03-26T02:10:47.796Z,97576.88
2023-03-26T02:13:15.680Z,97571.95
2023-03-26T02:15:56.186Z,97568.97
2023-03-26T02:18:24.440Z,97565.56
2023-03-26T02:20:55.966Z,97566.40
2023-03-26T02:23:23.399Z,97573.27
2023-03-26T02:25:50.564Z,97577.52
2023-03-26T02:28:17.965Z,97575.79
2023-03-26T02:30:46.328Z,97573.98
2023-03-26T02:33:15.998Z,97569.94
2023-03-26T02:35:46.372Z,97573.91
2023-03-26T02:38:15.014Z,97570.20
2023-03-26T02:40:42.256Z,97565.71
2023-03-26T02:43:09.503Z,97560.58
2023-03-26T02:45:36.577Z,97555.28
2023-03-26T02:48:04.156Z,97553.68
2023-03-26T02:50:33.240Z,97552.55
2023-03-26T02:53:01.162Z,97555.48
2023-03-26T02:55:28.822Z,97558.10
2023-03-26T02:57:56.852Z,97559.19
2023-03-26T03:00:23.955Z,97560.52
2023-03-26T03:02:51.099Z,97551.92
2023-03-26T03:05:18.772Z,97553.80
2023-03-26T03:07:46.999Z,97554.15
2023-03-26T03:10:15.804Z,97557.42
2023-03-26T03:12:43.675Z,97558.38
2023-03-26T03:15:11.850Z,97554.85
2023-03-26T03:17:38.958Z,97554.58
2023-03-26T03:20:09.563Z,97554.80
2023-03-26T03:22:36.972Z,97546.78
2023-03-26T03:25:05.887Z,97547.56
2023-03-26T03:27:33.115Z,97547.13
2023-03-26T03:30:00.197Z,97544.84
2023-03-26T03:32:28.036Z,97549.15
2023-03-26T03:34:55.319Z,97550.41
2023-03-26T03:37:22.357Z,97551.09
2023-03-26T03:39:49.642Z,97551.13
2023-03-26T03:42:16.824Z,97549.77
2023-03-26T03:44:44.171Z,97547.63
2023-03-26T03:47:14.089Z,97548.45
2023-03-26T03:49:41.639Z,97555.02
2023-03-26T03:52:08.922Z,97559.48
2023-03-26T03:54:36.698Z,97558.58
2023-03-26T03:57:03.948Z,97558.31
2023-03-26T03:59:31.372Z,97563.63
2023-03-26T04:01:58.770Z,97561.53
2023-03-26T04:04:26.455Z,97559.30
2023-03-26T04:06:53.429Z,97551.58
2023-03-26T04:09:20.882Z,97554.26
2023-03-26T04:11:48.279Z,97557.13
2023-03-26T04:14:15.373Z,97550.76
2023-03-26T04:16:42.602Z,97552.97
2023-03-26T04:19:09.799Z,97550.88
2023-03-26T04:21:38.056Z,97542.61
2023-03-26T04:24:06.443Z,97549.07
2023-03-26T04:26:33.375Z,97551.63
2023-03-26T04:29:03.960Z,97559.27
2023-03-26T04:31:31.587Z,97558.08
2023-03-26T04:34:14.290Z,97557.59
2023-03-26T04:36:42.949Z,97558.66
2023-03-26T04:39:13.649Z,97558.95
2023-03-26T04:41:40.828Z,97557.10
2023-03-26T04:44:07.766Z,97556.60
2023-03-26T04:46:35.370Z,97551.94
2023-03-26T04:49:02.571Z,97555.17
2023-03-26T04:51:38.724Z,97558.95
2023-03-26T04:54:08.461Z,97558.79
2023-03-26T04:56:52.141Z,97553.27
2023-03-26T04:59:26.668Z,97549.59
2023-03-26T05:01:54.558Z,97556.23
2023-03-26T05:04:21.628Z,97557.90
2023-03-26T05:06:49.064Z,97555.11
2023-03-26T05:09:16.679Z,97553.09
2023-03-26T05:11:43.881Z,97552.01
2023-03-26T05:14:11.484Z,97549.87
2023-03-26T05:16:40.004Z,97544.13
2023-03-26T05:19:07.411Z,97541.05
2023-03-26T05:21:35.193Z,97540.08
2023-03-26T05:24:02.657Z,97539.48
2023-03-26T05:26:29.927Z,97546.77
2023-03-26T05:28:57.281Z,97554.66
2023-03-26T05:31:25.085Z,97553.69
2023-03-26T05:33:52.858Z,97557.71
2023-03-26T05:36:20.316Z,97561.92
2023-03-26T05:38:50.289Z,97561.30
2023-03-26T05:41:18.208Z,97562.99
2023-03-26T05:43:46.461Z,97564.80
2023-03-26T05:46:14.532Z,97562.17
2023-03-26T05:48:41.885Z,97562.35
2023-03-26T05:51:09.664Z,97567.02
2023-03-26T05:53:36.770Z,97567.79
2023-03-26T05:56:04.780Z,97567.86
2023-03-26T05:58:36.769Z,97568.70
2023-03-26T06:01:17.147Z,97569.85
2023-03-26T06:03:46.156Z,97574.61
2023-03-26T06:06:16.516Z,97575.16
2023-03-26T06:08:47.495Z,97573.51
2023-03-26T06:11:15.265Z,97576.67
2023-03-26T06:13:43.371Z,97580.52
2023-03-26T06:16:25.979Z,97578.83
2023-03-26T06:18:56.653Z,97581.58
2023-03-26T06:21:26.000Z,97582.64
2023-03-26T06:23:53.607Z,97581.34
2023-03-26T06:26:21.645Z,97577.42
2023-03-26T06:28:48.767Z,97582.08
2023-03-26T06:31:17.661Z,97581.41
2023-03-26T06:33:45.374Z,97580.33
2023-03-26T06:36:12.383Z,97580.25
2023-03-26T06:38:39.780Z,97581.38
2023-03-26T06:41:08.154Z,97581.14
2023-03-26T06:43:36.749Z,97581.23
2023-03-26T06:46:04.852Z,97582.06
2023-03-26T06:48:32.240Z,97579.15
2023-03-26T06:51:08.950Z,97582.73
2023-03-26T06:53:41.973Z,97581.99
2023-03-26T06:56:18.897Z,97575.55
2023-03-26T06:58:51.387Z,97577.44
2023-03-26T07:01:18.626Z,97581.82
2023-03-26T07:03:46.147Z,97581.73
2023-03-26T07:06:13.512Z,97583.17
2023-03-26T07:08:40.784Z,97581.11
2023-03-26T07:11:08.023Z,97584.48
2023-03-26T07:13:35.469Z,97580.69
2023-03-26T07:16:03.108Z,97586.05
2023-03-26T07:18:30.440Z,97586.48
2023-03-26T07:20:58.052Z,97583.63
2023-03-26T07:23:25.712Z,97582.34
2023-03-26T07:25:53.365Z,97583.64
2023-03-26T07:28:34.593Z,97578.98
2023-03-26T07:31:35.095Z,97582.53
2023-03-26T07:34:05.665Z,97582.19
2023-03-26T07:36:48.794Z,97589.86
2023-03-26T07:39:44.968Z,97587.50
2023-03-26T07:42:28.709Z,97582.15
2023-03-26T07:45:13.144Z,97585.77
2023-03-26T07:47:43.222Z,97585.05
2023-03-26T07:50:19.128Z,97576.02
2023-03-26T07:52:46.972Z,97576.99
2023-03-26T07:55:16.064Z,97573.00
2023-03-26T07:58:17.621Z,97578.77
2023-03-26T08:00:57.512Z,97582.95
2023-03-26T08:03:30.864Z,97583.01
2023-03-26T08:06:09.065Z,97583.03
2023-03-26T08:08:45.999Z,97583.59
2023-03-26T08:11:35.035Z,97578.86
2023-03-26T08:14:20.272Z,97584.59
2023-03-26T08:16:56.650Z,97579.95
2023-03-26T08:19:29.516Z,97581.01
2023-03-26T08:22:06.913Z,97574.33
2023-03-26T08:24:47.827Z,97572.83
2023-03-26T08:27:38.537Z,97574.45
2023-03-26T08:30:17.593Z,97567.80
2023-03-26T08:32:54.354Z,97571.46
2023-03-26T08:35:21.654Z,97562.72
2023-03-26T08:37:48.569Z,97560.21
2023-03-26T08:40:46.434Z,97555.74
2023-03-26T08:43:44.374Z,97552.33
2023-03-26T08:46:30.931Z,97558.17
2023-03-26T08:49:29.679Z,97548.84
2023-03-26T08:52:34.530Z,97545.91
2023-03-26T08:55:17.118Z,97545.53
2023-03-26T08:58:21.758Z,97546.73
2023-03-26T09:01:17.531Z,97545.90
2023-03-26T09:04:13.666Z,97539.59
2023-03-26T09:06:48.695Z,97539.73
2023-03-26T09:09:31.273Z,97543.46
2023-03-26T09:12:36.191Z,97541.38
2023-03-26T09:15:28.479Z,97544.37
2023-03-26T09:17:58.584Z,97538.27
2023-03-26T09:20:44.146Z,97532.36
2023-03-26T09:23:45.471Z,97535.08
2023-03-26T09:26:25.358Z,97527.80
2023-03-26T09:29:10.540Z,97522.76
2023-03-26T09:32:02.830Z,97521.77
2023-03-26T09:34:33.277Z,97521.05
2023-03-26T09:37:21.900Z,97521.27
2023-03-26T09:40:18.875Z,97523.74
2023-03-26T09:43:17.181Z,97525.06
2023-03-26T09:45:52.902Z,97519.41
2023-03-26T09:48:58.514Z,97514.80
2023-03-26T09:51:27.739Z,97517.24
2023-03-26T09:54:32.351Z,97514.02
2023-03-26T09:57:09.021Z,97515.66
2023-03-26T09:59:51.944Z,97511.04
2023-03-26T10:02:46.234Z,97507.23
2023-03-26T10:05:30.451Z,97506.27
2023-03-26T10:08:25.418Z,97504.11
2023-03-26T10:10:58.652Z,97503.60
2023-03-26T10:13:43.979Z,97499.82
2023-03-26T10:16:30.139Z,97496.95
2023-03-26T10:19:20.311Z,97495.61
2023-03-26T10:22:11.981Z,97494.64
2023-03-26T10:25:19.740Z,97491.67
2023-03-26T10:28:07.820Z,97492.98
2023-03-26T10:30:48.771Z,97484.61
2023-03-26T10:33:38.458Z,97486.08
2023-03-26T10:36:23.372Z,97483.83
2023-03-26T10:39:09.599Z,97483.40
2023-03-26T10:41:45.975Z,97480.20
2023-03-26T10:44:46.055Z,97481.68
2023-03-26T10:47:24.970Z,97482.63
2023-03-26T10:50:23.124Z,97475.92
2023-03-26T10:53:53.164Z,97473.25
2023-03-26T10:56:33.273Z,97470.81
2023-03-26T10:59:05.987Z,97466.91
2023-03-26T11:01:33.323Z,97462.50
2023-03-26T11:04:32.562Z,97451.44
2023-03-26T11:07:07.500Z,97445.23
2023-03-26T11:09:54.335Z,97450.48
2023-03-26T11:12:25.798Z,97443.29
2023-03-26T11:15:16.543Z,97449.58
2023-03-26T11:18:01.973Z,97446.17
2023-03-26T11:21:19.770Z,97444.66
2023-03-26T11:24:17.403Z,97443.80
2023-03-26T11:26:56.173Z,97441.52
2023-03-26T11:29:53.664Z,97440.70
2023-03-26T11:32:38.590Z,97438.99
2023-03-26T11:35:40.540Z,97442.24
2023-03-26T11:38:34.032Z,97433.99
2023-03-26T11:41:04.203Z,97431.02
2023-03-26T11:43:37.723Z,97430.81
2023-03-26T11:46:15.103Z,97428.89
2023-03-26T11:48:51.332Z,97428.02
2023-03-26T11:51:33.502Z,97418.08
2023-03-26T11:54:03.406Z,97427.09
2023-03-26T11:57:05.594Z,97427.00
2023-03-26T11:59:53.152Z,97418.67
2023-03-26T12:02:32.930Z,97415.64
2023-03-26T12:05:18.852Z,97416.33
2023-03-26T12:07:47.240Z,97411.94
2023-03-26T12:10:29.443Z,97409.70
2023-03-26T12:13:02.546Z,97409.25
2023-03-26T12:15:34.246Z,97406.39
2023-03-26T12:18:28.964Z,97399.73
2023-03-26T12:21:09.227Z,97393.73
2023-03-26T12:24:06.423Z,97392.83
2023-03-26T12:26:36.878Z,97390.40
2023-03-26T12:29:17.888Z,97385.30
2023-03-26T12:32:03.641Z,97379.85
2023-03-26T12:34:35.685Z,97377.36
2023-03-26T12:37:05.077Z,97363.67
2023-03-26T12:40:07.134Z,97360.82
2023-03-26T12:44:47.214Z,97357.83
2023-03-26T12:45:37.972Z,97351.53
2023-03-26T12:48:05.781Z,97344.55
2023-03-26T12:50:44.639Z,97341.52
2023-03-26T12:53:23.515Z,97340.99
2023-03-26T12:56:02.235Z,97340.53
2023-03-26T12:58:44.378Z,97339.38
2023-03-26T13:01:16.259Z,97336.41
2023-03-26T13:04:07.196Z,97336.60
2023-03-26T13:06:59.260Z,97333.85
2023-03-26T13:09:56.400Z,97322.63
2023-03-26T13:12:42.224Z,97323.83
2023-03-26T13:15:39.204Z,97319.33
2023-03-26T13:18:33.340Z,97306.86
2023-03-26T13:21:23.843Z,97307.71
2023-03-26T13:24:14.227Z,97306.36
2023-03-26T13:27:13.626Z,97305.02
2023-03-26T13:29:41.130Z,97302.73
2023-03-26T13:32:40.559Z,97301.26
2023-03-26T13:35:14.247Z,97299.70
2023-03-26T13:37:56.321Z,97296.66
2023-03-26T13:40:39.507Z,97291.34
2023-03-26T13:43:44.444Z,97287.60
2023-03-26T13:46:14.342Z,97289.42
2023-03-26T13:49:00.419Z,97287.44
2023-03-26T13:51:49.213Z,97283.55
2023-03-26T13:54:23.849Z,97285.38
2023-03-26T13:57:33.568Z,97282.20
2023-03-26T14:00:13.078Z,97282.02
2023-03-26T14:02:42.435Z,97282.27
2023-03-26T14:05:25.323Z,97285.58
2023-03-26T14:08:21.924Z,97283.46
2023-03-26T14:11:14.712Z,97279.78
2023-03-26T14:13:47.606Z,97278.45
2023-03-26T14:16:25.966Z,97274.83
2023-03-26T14:19:29.808Z,97274.83
2023-03-26T14:22:08.480Z,97270.94
2023-03-26T14:24:54.818Z,97265.21
2023-03-26T14:27:43.523Z,97257.90
2023-03-26T14:30:39.967Z,97255.01
2023-03-26T14:33:34.745Z,97256.61
2023-03-26T14:36:16.170Z,97254.89
2023-03-26T14:39:01.672Z,97255.35
2023-03-26T14:41:57.281Z,97249.01
2023-03-26T14:44:56.806Z,97253.41
2023-03-26T14:47:27.591Z,97251.67
2023-03-26T14:50:14.559Z,97245.39
2023-03-26T14:53:01.263Z,97241.65
2023-03-26T14:55:43.958Z,97244.18
2023-03-26T14:58:29.762Z,97243.45
2023-03-26T15:01:42.032Z,97243.10
2023-03-26T15:04:33.565Z,97243.44
2023-03-26T15:07:45.248Z,97240.47
2023-03-26T15:10:23.029Z,97239.55
2023-03-26T15:13:22.254Z,97239.30
2023-03-26T15:15:58.405Z,97235.00
2023-03-26T15:18:58.961Z,97235.35
2023-03-26T15:21:47.842Z,97233.90
2023-03-26T15:24:31.382Z,97232.13
2023-03-26T15:27:16.963Z,97231.81
2023-03-26T15:30:06.880Z,97226.48
2023-03-26T15:33:23.062Z,97227.71
2023-03-26T15:36:19.815Z,97221.95
2023-03-26T15:39:18.120Z,97224.81
2023-03-26T15:41:50.319Z,97219.55
2023-03-26T15:44:29.407Z,97219.77
2023-03-26T15:47:28.631Z,97218.45
2023-03-26T15:50:08.835Z,97219.44
2023-03-26T15:52:43.296Z,97213.40
2023-03-26T15:55:23.414Z,97212.01
2023-03-26T15:58:24.322Z,97207.21
2023-03-26T16:01:03.240Z,97208.01
2023-03-26T16:03:39.453Z,97208.16
2023-03-26T16:06:31.388Z,97202.79
2023-03-26T16:09:40.960Z,97201.50
2023-03-26T16:12:29.210Z,97201.13
2023-03-26T16:15:16.872Z,97199.65
2023-03-26T16:18:16.378Z,97199.04
2023-03-26T16:20:57.500Z,97200.94
2023-03-26T16:23:32.330Z,97194.73
2023-03-26T16:26:13.377Z,97193.88
2023-03-26T16:28:46.003Z,97193.42
2023-03-26T16:31:36.918Z,97189.88
2023-03-26T16:34:05.618Z,97194.30
2023-03-26T16:36:35.027Z,97190.99
2023-03-26T16:39:11.860Z,97195.14
2023-03-26T16:41:50.559Z,97195.14
2023-03-26T16:44:59.280Z,97196.19
2023-03-26T16:47:39.011Z,97195.39
2023-03-26T16:50:32.973Z,97192.73
2023-03-26T16:53:30.187Z,97189.71
2023-03-26T16:56:02.904Z,97192.40
2023-03-26T16:58:56.562Z,97192.38
2023-03-26T17:01:56.927Z,97196.23
2023-03-26T17:04:30.802Z,97194.63
2023-03-26T17:07:09.135Z,97195.67
2023-03-26T17:10:10.046Z,97194.31
2023-03-26T17:13:03.199Z,97193.99
2023-03-26T17:15:47.377Z,97197.47
2023-03-26T17:18:26.610Z,97204.89
2023-03-26T17:21:10.157Z,97215.15
2023-03-26T17:23:39.081Z,97214.83
2023-03-26T17:26:31.726Z,97209.67
2023-03-26T17:29:27.644Z,97208.23
2023-03-26T17:32:12.158Z,97211.41
2023-03-26T17:34:47.343Z,97206.27
2023-03-26T17:37:17.379Z,97201.80
2023-03-26T17:39:45.743Z,97207.17
2023-03-26T17:42:33.522Z,97212.60
2023-03-26T17:45:17.849Z,97212.36
2023-03-26T17:47:51.741Z,97215.59
2023-03-26T17:50:27.682Z,97209.38
2023-03-26T17:53:04.089Z,97212.58
2023-03-26T17:55:35.210Z,97212.30
2023-03-26T17:58:05.435Z,97216.66
2023-03-26T18:00:40.683Z,97225.80
2023-03-26T18:03:24.523Z,97224.48
2023-03-26T18:05:56.854Z,97225.15
2023-03-26T18:08:55.367Z,97229.13
2023-03-26T18:11:43.683Z,97228.02
2023-03-26T18:14:26.721Z,97225.62
2023-03-26T18:16:58.966Z,97226.45
2023-03-26T18:19:27.219Z,97230.67
2023-03-26T18:21:57.927Z,97233.48
2023-03-26T18:24:30.553Z,97233.03
2023-03-26T18:27:11.993Z,97236.52
2023-03-26T18:30:02.819Z,97239.27
2023-03-26T18:32:34.068Z,97232.94
2023-03-26T18:35:03.290Z,97230.56
2023-03-26T18:37:36.426Z,97229.46
2023-03-26T18:40:12.503Z,97226.70
2023-03-26T18:42:41.696Z,97226.69
2023-03-26T18:45:34.051Z,97226.71
2023-03-26T18:48:21.690Z,97227.74
2023-03-26T18:50:55.042Z,97224.18
2023-03-26T18:53:30.021Z,97222.22
2023-03-26T18:55:58.471Z,97220.33
2023-03-26T18:58:33.118Z,97223.98
2023-03-26T19:01:16.942Z,97222.14
2023-03-26T19:03:51.396Z,97219.23
2023-03-26T19:06:21.234Z,97217.15
2023-03-26T19:08:49.044Z,97214.30
2023-03-26T19:11:17.892Z,97217.19
2023-03-26T19:13:50.888Z,97211.56
2023-03-26T19:16:26.065Z,97209.64
2023-03-26T19:18:54.167Z,97206.42
2023-03-26T19:21:23.533Z,97202.58
2023-03-26T19:23:52.599Z,97200.15
2023-03-26T19:26:19.843Z,97193.89
2023-03-26T19:28:54.559Z,97193.77
2023-03-26T19:31:28.129Z,97187.40
2023-03-26T19:34:02.567Z,97190.90
2023-03-26T19:36:32.751Z,97185.29
2023-03-26T19:38:59.653Z,97181.20
2023-03-26T19:41:32.576Z,97178.51
2023-03-26T19:44:02.000Z,97176.30
2023-03-26T19:46:52.873Z,97177.72
2023-03-26T19:49:58.080Z,97174.72
2023-03-26T19:52:36.916Z,97164.82
2023-03-26T19:55:19.099Z,97159.60
2023-03-26T19:57:46.279Z,97153.20
2023-03-26T20:00:14.748Z,97145.66
2023-03-26T20:02:43.406Z,97144.33
2023-03-26T20:05:25.967Z,97141.70
2023-03-26T20:07:58.677Z,97140.52
2023-03-26T20:10:26.359Z,97137.11
2023-03-26T20:12:53.656Z,97127.92
2023-03-26T20:15:24.729Z,97123.83
2023-03-26T20:17:54.859Z,97118.37
2023-03-26T20:20:25.006Z,97111.23
2023-03-26T20:22:54.139Z,97112.46
2023-03-26T20:25:50.220Z,97113.48
2023-03-26T20:28:19.400Z,97107.86
2023-03-26T20:30:48.468Z,97101.67
2023-03-26T20:33:19.490Z,97097.85
2023-03-26T20:35:47.492Z,97096.55
2023-03-26T20:38:14.715Z,97092.77
2023-03-26T20:40:41.816Z,97083.62
2023-03-26T20:43:14.081Z,97080.00
2023-03-26T20:45:41.118Z,97070.70
2023-03-26T20:48:12.143Z,97062.92
2023-03-26T20:50:50.482Z,97060.75
2023-03-26T20:53:19.262Z,97056.00
2023-03-26T20:55:47.961Z,97054.74
2023-03-26T20:58:31.530Z,97052.02
2023-03-26T21:01:02.563Z,97048.20
2023-03-26T21:03:29.997Z,97044.11
2023-03-26T21:06:01.280Z,97040.16
2023-03-26T21:08:35.610Z,97043.57
2023-03-26T21:11:04.978Z,97040.15
2023-03-26T21:13:43.983Z,97038.62
2023-03-26T21:16:12.428Z,97044.50
2023-03-26T21:18:40.331Z,97044.55
2023-03-26T21:21:42.072Z,97048.31
2023-03-26T21:24:15.064Z,97046.41
2023-03-26T21:26:55.395Z,97052.20
2023-03-26T21:29:23.175Z,97060.37
2023-03-26T21:31:52.170Z,97056.36
2023-03-26T21:34:22.517Z,97061.41
2023-03-26T21:36:59.798Z,97060.40
2023-03-26T21:39:31.085Z,97052.41
2023-03-26T21:42:05.436Z,97047.80
2023-03-26T21:44:35.978Z,97043.30
2023-03-26T21:47:12.007Z,97033.77
2023-03-26T21:49:43.626Z,97032.48
2023-03-26T21:52:15.230Z,97033.23
2023-03-26T21:54:43.414Z,97029.76
2023-03-26T21:57:21.621Z,97032.64
2023-03-26T22:00:28.209Z,97032.98
2023-03-26T22:03:21.855Z,97037.20
2023-03-26T22:06:02.662Z,97038.53
2023-03-26T22:08:41.704Z,97036.34
2023-03-26T22:11:11.045Z,97039.55
2023-03-26T22:13:39.355Z,97040.70
2023-03-26T22:16:09.068Z,97040.50
2023-03-26T22:18:36.002Z,97039.08
2023-03-26T22:21:02.887Z,97035.35
2023-03-26T22:23:36.639Z,97030.67
2023-03-26T22:26:05.071Z,97032.56
2023-03-26T22:28:32.295Z,97032.32
2023-03-26T22:30:59.967Z,97031.27
2023-03-26T22:33:27.274Z,97031.61
2023-03-26T22:35:56.118Z,97025.12
2023-03-26T22:38:23.297Z,97022.78
2023-03-26T22:40:58.143Z,97022.00
2023-03-26T22:43:25.224Z,97017.34
2023-03-26T22:45:54.440Z,97013.27
2023-03-26T22:48:23.935Z,97008.55
2023-03-26T22:51:05.691Z,97001.86
2023-03-26T22:53:32.906Z,96997.48
2023-03-26T22:56:00.145Z,96990.52
2023-03-26T22:58:27.495Z,96992.09
2023-03-26T23:01:08.427Z,96987.95
2023-03-26T23:03:37.157Z,96981.14
2023-03-26T23:06:07.184Z,96975.08
2023-03-26T23:08:36.471Z,96972.87
2023-03-26T23:11:08.652Z,96976.86
2023-03-26T23:13:35.531Z,96981.01
2023-03-26T23:18:29.068Z,96982.31
2023-03-26T23:20:57.862Z,96984.77
2023-03-26T23:23:31.213Z,96979.00
2023-03-26T23:26:00.378Z,96981.15
2023-03-26T23:28:30.534Z,96982.89
2023-03-26T23:30:57.568Z,96980.20
2023-03-26T23:33:26.626Z,96977.64
2023-03-26T23:36:00.198Z,96972.05
2023-03-26T23:38:43.553Z,96971.90
2023-03-26T23:41:15.447Z,96971.09
2023-03-26T23:43:54.276Z,96975.90
2023-03-26T23:46:24.175Z,96976.09
2023-03-26T23:48:51.947Z,96974.59
2023-03-26T23:51:24.291Z,96976.06
2023-03-26T23:53:52.818Z,96975.55
2023-03-26T23:56:20.490Z,96976.15
2023-03-26T23:58:49.114Z,96975.60
